sensor_id;sensor_type;location;lat;lon;timestamp;pressure;altitude;pressure_sealevel;temperature;humidity
1652;BME280;823;49.028;8.454;2023-04-21T00:01:48;100109.44;;;8.98;58.72
1652;BME280;823;49.028;8.454;2023-04-21T00:06:49;100108.81;;;8.90;59.10
1652;BME280;823;49.028;8.454;2023-04-21T00:11:49;100103.97;;;8.81;59.18
1652;BME280;823;49.028;8.454;2023-04-21T00:16:50;100096.97;;;8.84;59.82
1652;BME280;823;49.028;8.454;2023-04-21T00:21:51;100083.19;;;8.85;59.57
1652;BME280;823;49.028;8.454;2023-04-21T00:26:57;100084.94;;;8.85;59.55
1652;BME280;823;49.028;8.454;2023-04-21T00:31:57;100092.53;;;8.60;59.62
1652;BME280;823;49.028;8.454;2023-04-21T00:36:58;100093.31;;;8.63;59.54
1652;BME280;823;49.028;8.454;2023-04-21T00:41:59;100084.22;;;8.51;59.78
1652;BME280;823;49.028;8.454;2023-04-21T00:47:00;100087.13;;;8.39;59.63
1652;BME280;823;49.028;8.454;2023-04-21T00:52:00;100076.81;;;8.38;59.32
1652;BME280;823;49.028;8.454;2023-04-21T00:57:01;100083.09;;;8.29;59.57
1652;BME280;823;49.028;8.454;2023-04-21T01:02:03;100070.44;;;8.21;59.71
1652;BME280;823;49.028;8.454;2023-04-21T01:07:04;100071.44;;;8.17;59.82
1652;BME280;823;49.028;8.454;2023-04-21T01:12:10;100069.72;;;8.16;59.90
1652;BME280;823;49.028;8.454;2023-04-21T01:17:10;100062.25;;;8.07;60.25
1652;BME280;823;49.028;8.454;2023-04-21T01:22:12;100062.16;;;8.10;59.91
1652;BME280;823;49.028;8.454;2023-04-21T01:27:17;100064.88;;;8.05;59.92
1652;BME280;823;49.028;8.454;2023-04-21T01:32:23;100067.81;;;7.91;59.35
1652;BME280;823;49.028;8.454;2023-04-21T01:37:27;100065.34;;;7.88;59.45
1652;BME280;823;49.028;8.454;2023-04-21T01:42:28;100065.72;;;7.74;59.42
1652;BME280;823;49.028;8.454;2023-04-21T01:47:29;100070.19;;;7.67;59.12
1652;BME280;823;49.028;8.454;2023-04-21T01:52:29;100079.81;;;7.59;59.57
1652;BME280;823;49.028;8.454;2023-04-21T01:57:29;100071.13;;;7.63;59.73
1652;BME280;823;49.028;8.454;2023-04-21T02:02:29;100079.22;;;7.49;59.62
1652;BME280;823;49.028;8.454;2023-04-21T02:07:30;100082.63;;;7.50;59.75
1652;BME280;823;49.028;8.454;2023-04-21T02:12:30;100081.84;;;7.48;59.81
1652;BME280;823;49.028;8.454;2023-04-21T02:17:30;100079.34;;;7.43;59.83
1652;BME280;823;49.028;8.454;2023-04-21T02:22:31;100068.41;;;7.37;59.42
1652;BME280;823;49.028;8.454;2023-04-21T02:27:31;100090.91;;;7.27;59.86
1652;BME280;823;49.028;8.454;2023-04-21T02:32:31;100086.69;;;7.24;60.00
1652;BME280;823;49.028;8.454;2023-04-21T02:37:33;100085.13;;;7.17;59.99
1652;BME280;823;49.028;8.454;2023-04-21T02:42:33;100084.97;;;7.25;59.91
1652;BME280;823;49.028;8.454;2023-04-21T02:47:34;100090.06;;;7.26;59.73
1652;BME280;823;49.028;8.454;2023-04-21T02:52:35;100084.13;;;7.24;59.83
1652;BME280;823;49.028;8.454;2023-04-21T02:57:36;100084.13;;;7.24;59.53
1652;BME280;823;49.028;8.454;2023-04-21T03:02:36;100085.13;;;7.17;59.44
1652;BME280;823;49.028;8.454;2023-04-21T03:07:37;100083.75;;;7.04;59.29
1652;BME280;823;49.028;8.454;2023-04-21T03:12:37;100074.31;;;7.04;59.68
1652;BME280;823;49.028;8.454;2023-04-21T03:17:38;100067.28;;;7.11;59.92
1652;BME280;823;49.028;8.454;2023-04-21T03:22:38;100058.75;;;7.09;59.80
1652;BME280;823;49.028;8.454;2023-04-21T03:27:38;100058.03;;;7.04;59.88
1652;BME280;823;49.028;8.454;2023-04-21T03:32:39;100065.75;;;7.04;59.79
1652;BME280;823;49.028;8.454;2023-04-21T03:37:39;100064.06;;;7.03;59.68
1652;BME280;823;49.028;8.454;2023-04-21T03:42:39;100057.25;;;7.00;59.90
1652;BME280;823;49.028;8.454;2023-04-21T03:47:40;100057.44;;;6.92;60.27
1652;BME280;823;49.028;8.454;2023-04-21T03:52:40;100052.59;;;6.80;59.81
1652;BME280;823;49.028;8.454;2023-04-21T03:57:41;100043.25;;;6.76;59.61
1652;BME280;823;49.028;8.454;2023-04-21T04:02:41;100045.75;;;6.79;60.68
1652;BME280;823;49.028;8.454;2023-04-21T04:07:42;100045.50;;;6.90;60.34
1652;BME280;823;49.028;8.454;2023-04-21T04:12:42;100035.34;;;6.84;60.16
1652;BME280;823;49.028;8.454;2023-04-21T04:17:43;100041.28;;;6.87;59.74
1652;BME280;823;49.028;8.454;2023-04-21T04:22:43;100053.31;;;6.85;59.67
1652;BME280;823;49.028;8.454;2023-04-21T04:27:43;100061.06;;;6.84;59.52
1652;BME280;823;49.028;8.454;2023-04-21T04:32:44;100052.56;;;6.81;59.58
1652;BME280;823;49.028;8.454;2023-04-21T04:37:44;100050.13;;;6.74;59.86
1652;BME280;823;49.028;8.454;2023-04-21T04:42:45;100049.31;;;6.73;59.68
1652;BME280;823;49.028;8.454;2023-04-21T04:47:46;100053.66;;;6.70;59.92
1652;BME280;823;49.028;8.454;2023-04-21T04:52:46;100067.50;;;6.64;60.00
1652;BME280;823;49.028;8.454;2023-04-21T04:57:48;100063.81;;;6.76;60.16
1652;BME280;823;49.028;8.454;2023-04-21T05:02:48;100057.94;;;6.71;60.43
1652;BME280;823;49.028;8.454;2023-04-21T05:07:49;100070.78;;;6.71;60.46
1652;BME280;823;49.028;8.454;2023-04-21T05:12:49;100067.25;;;6.75;60.52
1652;BME280;823;49.028;8.454;2023-04-21T05:17:50;100080.88;;;6.80;60.50
1652;BME280;823;49.028;8.454;2023-04-21T05:22:50;100101.09;;;6.95;60.39
1652;BME280;823;49.028;8.454;2023-04-21T05:27:50;100103.53;;;7.00;60.60
1652;BME280;823;49.028;8.454;2023-04-21T05:32:51;100100.66;;;7.14;60.43
1652;BME280;823;49.028;8.454;2023-04-21T05:37:51;100092.59;;;7.28;60.08
1652;BME280;823;49.028;8.454;2023-04-21T05:42:51;100114.66;;;7.38;60.03
1652;BME280;823;49.028;8.454;2023-04-21T05:47:52;100097.22;;;7.49;60.03
1652;BME280;823;49.028;8.454;2023-04-21T05:52:52;100097.94;;;7.56;60.09
1652;BME280;823;49.028;8.454;2023-04-21T05:57:52;100119.09;;;7.67;59.98
1652;BME280;823;49.028;8.454;2023-04-21T06:02:53;100109.25;;;7.82;59.81
1652;BME280;823;49.028;8.454;2023-04-21T06:07:53;100115.16;;;7.87;60.01
1652;BME280;823;49.028;8.454;2023-04-21T06:12:53;100127.56;;;8.04;59.81
1652;BME280;823;49.028;8.454;2023-04-21T06:17:53;100120.63;;;8.08;59.84
1652;BME280;823;49.028;8.454;2023-04-21T06:22:54;100123.16;;;8.09;59.75
1652;BME280;823;49.028;8.454;2023-04-21T06:27:54;100113.53;;;8.16;59.59
1652;BME280;823;49.028;8.454;2023-04-21T06:32:55;100101.38;;;8.21;59.61
1652;BME280;823;49.028;8.454;2023-04-21T06:37:55;100103.59;;;8.33;60.20
1652;BME280;823;49.028;8.454;2023-04-21T06:42:56;100103.56;;;8.65;61.16
1652;BME280;823;49.028;8.454;2023-04-21T06:47:56;100090.31;;;9.06;61.84
1652;BME280;823;49.028;8.454;2023-04-21T06:52:56;100092.03;;;9.59;61.29
1652;BME280;823;49.028;8.454;2023-04-21T06:57:57;100085.25;;;10.05;60.97
1652;BME280;823;49.028;8.454;2023-04-21T07:02:57;100088.25;;;10.65;60.22
1652;BME280;823;49.028;8.454;2023-04-21T07:07:57;100092.16;;;11.20;58.25
1652;BME280;823;49.028;8.454;2023-04-21T07:13:01;100082.50;;;11.66;56.98
1652;BME280;823;49.028;8.454;2023-04-21T07:18:01;100087.63;;;12.09;54.59
1652;BME280;823;49.028;8.454;2023-04-21T07:23:01;100076.19;;;12.32;53.31
1652;BME280;823;49.028;8.454;2023-04-21T07:28:03;100073.38;;;12.75;52.54
1652;BME280;823;49.028;8.454;2023-04-21T07:33:03;100066.25;;;13.15;52.43
1652;BME280;823;49.028;8.454;2023-04-21T07:38:04;100057.22;;;13.41;51.18
1652;BME280;823;49.028;8.454;2023-04-21T07:43:04;100059.03;;;13.74;50.15
1652;BME280;823;49.028;8.454;2023-04-21T07:48:04;100055.94;;;14.01;50.99
1652;BME280;823;49.028;8.454;2023-04-21T07:53:06;100061.47;;;14.11;50.87
1652;BME280;823;49.028;8.454;2023-04-21T07:58:06;100059.34;;;14.51;49.20
1652;BME280;823;49.028;8.454;2023-04-21T08:03:09;100062.84;;;14.50;49.20
1652;BME280;823;49.028;8.454;2023-04-21T08:08:09;100055.38;;;14.60;49.35
1652;BME280;823;49.028;8.454;2023-04-21T08:13:09;100058.44;;;14.68;47.59
1652;BME280;823;49.028;8.454;2023-04-21T08:18:10;100052.94;;;14.89;47.94
1652;BME280;823;49.028;8.454;2023-04-21T08:23:10;100048.38;;;15.08;46.18
1652;BME280;823;49.028;8.454;2023-04-21T08:28:10;100042.91;;;15.58;46.32
1652;BME280;823;49.028;8.454;2023-04-21T08:33:11;100033.50;;;15.70;45.78
1652;BME280;823;49.028;8.454;2023-04-21T08:38:12;100033.59;;;15.68;44.58
1652;BME280;823;49.028;8.454;2023-04-21T08:43:13;100021.34;;;15.85;44.85
1652;BME280;823;49.028;8.454;2023-04-21T08:48:15;100022.81;;;15.89;45.12
1652;BME280;823;49.028;8.454;2023-04-21T08:53:18;100013.84;;;16.22;46.37
1652;BME280;823;49.028;8.454;2023-04-21T08:58:19;100009.56;;;16.21;45.05
1652;BME280;823;49.028;8.454;2023-04-21T09:03:23;100015.25;;;16.13;43.55
1652;BME280;823;49.028;8.454;2023-04-21T09:08:24;100006.38;;;16.30;44.84
1652;BME280;823;49.028;8.454;2023-04-21T09:13:34;99995.59;;;16.49;43.86
1652;BME280;823;49.028;8.454;2023-04-21T09:18:36;99986.53;;;16.27;44.62
1652;BME280;823;49.028;8.454;2023-04-21T09:23:48;99989.00;;;16.71;44.39
1652;BME280;823;49.028;8.454;2023-04-21T09:28:49;99979.69;;;16.66;43.90
1652;BME280;823;49.028;8.454;2023-04-21T09:33:53;99973.94;;;17.01;43.59
1652;BME280;823;49.028;8.454;2023-04-21T09:43:54;99960.91;;;17.27;42.71
1652;BME280;823;49.028;8.454;2023-04-21T09:48:54;99960.78;;;17.55;43.29
1652;BME280;823;49.028;8.454;2023-04-21T09:53:58;99957.44;;;17.52;42.37
1652;BME280;823;49.028;8.454;2023-04-21T09:59:00;99961.72;;;17.79;42.37
1652;BME280;823;49.028;8.454;2023-04-21T10:04:01;99956.25;;;17.95;42.29
1652;BME280;823;49.028;8.454;2023-04-21T10:09:03;99951.06;;;18.19;43.68
1652;BME280;823;49.028;8.454;2023-04-21T10:14:04;99947.09;;;18.38;41.63
1652;BME280;823;49.028;8.454;2023-04-21T10:19:24;99948.81;;;18.50;39.89
1652;BME280;823;49.028;8.454;2023-04-21T10:24:29;99932.13;;;18.40;41.35
1652;BME280;823;49.028;8.454;2023-04-21T10:29:32;99925.06;;;18.65;40.17
1652;BME280;823;49.028;8.454;2023-04-21T10:34:36;99921.06;;;18.83;39.84
1652;BME280;823;49.028;8.454;2023-04-21T10:39:45;99917.72;;;18.81;41.33
1652;BME280;823;49.028;8.454;2023-04-21T10:45:08;99906.81;;;18.87;40.54
1652;BME280;823;49.028;8.454;2023-04-21T10:50:12;99899.94;;;19.09;40.15
1652;BME280;823;49.028;8.454;2023-04-21T10:55:13;99904.25;;;19.33;41.16
1652;BME280;823;49.028;8.454;2023-04-21T11:00:20;99893.53;;;19.47;38.98
1652;BME280;823;49.028;8.454;2023-04-21T11:05:37;99878.16;;;19.43;40.08
1652;BME280;823;49.028;8.454;2023-04-21T11:10:51;99879.66;;;19.68;40.59
1652;BME280;823;49.028;8.454;2023-04-21T11:15:59;99867.97;;;19.72;40.66
1652;BME280;823;49.028;8.454;2023-04-21T11:21:14;99867.72;;;19.86;38.91
1652;BME280;823;49.028;8.454;2023-04-21T11:26:17;99864.75;;;19.80;40.23
1652;BME280;823;49.028;8.454;2023-04-21T11:31:19;99855.75;;;20.05;39.69
1652;BME280;823;49.028;8.454;2023-04-21T11:36:20;99856.41;;;19.74;38.53
1652;BME280;823;49.028;8.454;2023-04-21T11:41:22;99860.06;;;19.95;38.91
1652;BME280;823;49.028;8.454;2023-04-21T11:46:24;99852.34;;;20.14;39.15
1652;BME280;823;49.028;8.454;2023-04-21T11:51:25;99850.22;;;20.40;38.35
1652;BME280;823;49.028;8.454;2023-04-21T11:56:27;99854.13;;;20.46;37.97
1652;BME280;823;49.028;8.454;2023-04-21T12:01:27;99852.28;;;20.58;38.81
1652;BME280;823;49.028;8.454;2023-04-21T12:06:27;99836.84;;;20.65;39.81
1652;BME280;823;49.028;8.454;2023-04-21T12:11:29;99841.28;;;20.85;39.43
1652;BME280;823;49.028;8.454;2023-04-21T12:16:29;99834.03;;;20.78;39.43
1652;BME280;823;49.028;8.454;2023-04-21T12:21:30;99836.81;;;21.17;38.92
1652;BME280;823;49.028;8.454;2023-04-21T12:26:30;99826.06;;;21.20;38.87
1652;BME280;823;49.028;8.454;2023-04-21T12:31:31;99825.69;;;20.94;38.61
1652;BME280;823;49.028;8.454;2023-04-21T12:36:31;99829.72;;;20.98;38.42
1652;BME280;823;49.028;8.454;2023-04-21T12:41:31;99826.59;;;21.23;38.77
1652;BME280;823;49.028;8.454;2023-04-21T12:46:33;99828.56;;;21.21;38.46
1652;BME280;823;49.028;8.454;2023-04-21T12:51:34;99820.78;;;21.10;39.24
1652;BME280;823;49.028;8.454;2023-04-21T12:56:34;99820.00;;;21.39;38.70
1652;BME280;823;49.028;8.454;2023-04-21T13:01:36;99823.47;;;21.39;38.56
1652;BME280;823;49.028;8.454;2023-04-21T13:06:37;99804.16;;;21.19;38.95
1652;BME280;823;49.028;8.454;2023-04-21T13:11:38;99802.00;;;21.34;40.21
1652;BME280;823;49.028;8.454;2023-04-21T13:16:39;99804.56;;;21.55;38.95
1652;BME280;823;49.028;8.454;2023-04-21T13:21:39;99801.50;;;21.50;38.18
1652;BME280;823;49.028;8.454;2023-04-21T13:26:40;99797.69;;;21.74;36.67
1652;BME280;823;49.028;8.454;2023-04-21T13:31:40;99792.69;;;21.90;37.90
1652;BME280;823;49.028;8.454;2023-04-21T13:36:41;99788.94;;;21.93;37.43
1652;BME280;823;49.028;8.454;2023-04-21T13:41:41;99777.31;;;21.86;36.97
1652;BME280;823;49.028;8.454;2023-04-21T13:46:41;99765.94;;;21.95;37.37
1652;BME280;823;49.028;8.454;2023-04-21T13:51:42;99761.38;;;21.87;38.11
1652;BME280;823;49.028;8.454;2023-04-21T13:56:42;99738.25;;;21.81;36.23
1652;BME280;823;49.028;8.454;2023-04-21T14:01:42;99733.38;;;21.76;36.54
1652;BME280;823;49.028;8.454;2023-04-21T14:06:43;99720.47;;;22.03;37.48
1652;BME280;823;49.028;8.454;2023-04-21T14:11:43;99717.69;;;22.14;36.35
1652;BME280;823;49.028;8.454;2023-04-21T14:16:45;99711.84;;;22.20;36.10
1652;BME280;823;49.028;8.454;2023-04-21T14:21:47;99699.34;;;22.32;35.94
1652;BME280;823;49.028;8.454;2023-04-21T14:26:48;99688.38;;;22.47;35.68
1652;BME280;823;49.028;8.454;2023-04-21T14:31:48;99675.84;;;22.58;34.90
1652;BME280;823;49.028;8.454;2023-04-21T14:36:50;99673.25;;;22.49;35.68
1652;BME280;823;49.028;8.454;2023-04-21T14:41:51;99666.94;;;22.59;36.05
1652;BME280;823;49.028;8.454;2023-04-21T14:46:51;99659.72;;;22.61;35.77
1652;BME280;823;49.028;8.454;2023-04-21T14:51:52;99677.28;;;22.43;35.72
1652;BME280;823;49.028;8.454;2023-04-21T14:56:52;99683.28;;;22.25;35.54
1652;BME280;823;49.028;8.454;2023-04-21T15:01:52;99682.88;;;22.20;36.03
1652;BME280;823;49.028;8.454;2023-04-21T15:06:53;99680.97;;;22.03;36.16
1652;BME280;823;49.028;8.454;2023-04-21T15:11:53;99686.78;;;22.06;35.83
1652;BME280;823;49.028;8.454;2023-04-21T15:16:54;99687.41;;;21.90;35.95
1652;BME280;823;49.028;8.454;2023-04-21T15:21:55;99698.50;;;21.74;35.83
1652;BME280;823;49.028;8.454;2023-04-21T15:26:55;99710.69;;;21.75;35.78
1652;BME280;823;49.028;8.454;2023-04-21T15:31:56;99759.09;;;21.34;35.95
1652;BME280;823;49.028;8.454;2023-04-21T15:36:56;99758.59;;;20.68;34.65
1652;BME280;823;49.028;8.454;2023-04-21T15:41:57;99764.97;;;20.02;36.86
1652;BME280;823;49.028;8.454;2023-04-21T15:46:58;99756.44;;;19.78;41.51
1652;BME280;823;49.028;8.454;2023-04-21T15:51:58;99757.72;;;18.96;45.16
1652;BME280;823;49.028;8.454;2023-04-21T15:56:59;99730.28;;;18.43;46.44
1652;BME280;823;49.028;8.454;2023-04-21T16:02:01;99682.63;;;18.04;47.33
1652;BME280;823;49.028;8.454;2023-04-21T16:07:02;99678.94;;;17.71;51.67
1652;BME280;823;49.028;8.454;2023-04-21T16:12:02;99659.56;;;17.38;52.88
1652;BME280;823;49.028;8.454;2023-04-21T16:17:07;99685.44;;;17.30;54.38
1652;BME280;823;49.028;8.454;2023-04-21T16:22:08;99684.25;;;17.34;54.28
1652;BME280;823;49.028;8.454;2023-04-21T16:27:08;99676.47;;;17.45;51.50
1652;BME280;823;49.028;8.454;2023-04-21T16:32:09;99672.28;;;17.67;52.87
1652;BME280;823;49.028;8.454;2023-04-21T16:37:09;99683.84;;;17.76;51.40
1652;BME280;823;49.028;8.454;2023-04-21T16:42:09;99706.88;;;17.95;51.69
1652;BME280;823;49.028;8.454;2023-04-21T16:47:10;99704.50;;;17.92;54.44
1652;BME280;823;49.028;8.454;2023-04-21T16:52:10;99685.81;;;17.72;56.50
1652;BME280;823;49.028;8.454;2023-04-21T16:57:11;99697.25;;;17.71;57.52
1652;BME280;823;49.028;8.454;2023-04-21T17:02:11;99701.16;;;17.65;57.70
1652;BME280;823;49.028;8.454;2023-04-21T17:07:12;99702.69;;;17.68;58.40
1652;BME280;823;49.028;8.454;2023-04-21T17:12:12;99699.03;;;17.70;58.77
1652;BME280;823;49.028;8.454;2023-04-21T17:17:13;99707.50;;;17.74;58.26
1652;BME280;823;49.028;8.454;2023-04-21T17:22:13;99705.53;;;17.65;58.36
1652;BME280;823;49.028;8.454;2023-04-21T17:27:13;99702.94;;;17.65;58.62
1652;BME280;823;49.028;8.454;2023-04-21T17:32:14;99703.53;;;17.68;58.64
1652;BME280;823;49.028;8.454;2023-04-21T17:37:14;99710.59;;;17.79;58.19
1652;BME280;823;49.028;8.454;2023-04-21T17:42:15;99703.69;;;17.78;57.41
1652;BME280;823;49.028;8.454;2023-04-21T17:47:15;99698.84;;;17.85;56.93
1652;BME280;823;49.028;8.454;2023-04-21T17:52:15;99712.78;;;17.61;56.76
1652;BME280;823;49.028;8.454;2023-04-21T17:57:16;99716.28;;;17.73;56.17
1652;BME280;823;49.028;8.454;2023-04-21T18:02:16;99723.41;;;17.71;56.47
1652;BME280;823;49.028;8.454;2023-04-21T18:07:17;99722.69;;;17.69;54.92
1652;BME280;823;49.028;8.454;2023-04-21T18:12:18;99729.59;;;17.70;54.96
1652;BME280;823;49.028;8.454;2023-04-21T18:17:18;99738.38;;;17.69;54.95
1652;BME280;823;49.028;8.454;2023-04-21T18:22:19;99737.38;;;17.59;53.29
1652;BME280;823;49.028;8.454;2023-04-21T18:27:19;99736.88;;;17.53;52.16
1652;BME280;823;49.028;8.454;2023-04-21T18:32:20;99746.75;;;17.37;52.10
1652;BME280;823;49.028;8.454;2023-04-21T18:37:20;99747.41;;;17.28;52.14
1652;BME280;823;49.028;8.454;2023-04-21T18:42:20;99741.38;;;17.27;51.88
1652;BME280;823;49.028;8.454;2023-04-21T18:47:21;99751.63;;;17.17;52.32
1652;BME280;823;49.028;8.454;2023-04-21T18:52:22;99757.69;;;17.18;52.43
1652;BME280;823;49.028;8.454;2023-04-21T18:57:22;99760.63;;;17.13;53.34
1652;BME280;823;49.028;8.454;2023-04-21T19:02:23;99769.84;;;17.06;53.67
1652;BME280;823;49.028;8.454;2023-04-21T19:07:23;99771.75;;;16.91;54.25
1652;BME280;823;49.028;8.454;2023-04-21T19:12:23;99772.56;;;16.92;54.21
1652;BME280;823;49.028;8.454;2023-04-21T19:17:25;99762.34;;;16.89;53.80
1652;BME280;823;49.028;8.454;2023-04-21T19:22:25;99769.97;;;16.79;54.10
1652;BME280;823;49.028;8.454;2023-04-21T19:27:27;99773.50;;;16.78;54.08
1652;BME280;823;49.028;8.454;2023-04-21T19:32:29;99778.13;;;16.74;54.43
1652;BME280;823;49.028;8.454;2023-04-21T19:37:29;99777.16;;;16.75;54.47
1652;BME280;823;49.028;8.454;2023-04-21T19:42:30;99776.31;;;16.88;54.38
1652;BME280;823;49.028;8.454;2023-04-21T19:47:30;99779.88;;;16.74;54.37
1652;BME280;823;49.028;8.454;2023-04-21T19:52:35;99774.53;;;16.75;54.47
1652;BME280;823;49.028;8.454;2023-04-21T19:57:35;99769.75;;;16.69;54.10
1652;BME280;823;49.028;8.454;2023-04-21T20:02:36;99776.13;;;16.78;54.10
1652;BME280;823;49.028;8.454;2023-04-21T20:07:36;99771.84;;;16.77;54.31
1652;BME280;823;49.028;8.454;2023-04-21T20:12:37;99764.00;;;16.64;55.01
1652;BME280;823;49.028;8.454;2023-04-21T20:17:37;99773.63;;;16.50;55.33
1652;BME280;823;49.028;8.454;2023-04-21T20:22:38;99768.19;;;16.41;55.93
1652;BME280;823;49.028;8.454;2023-04-21T20:27:38;99776.53;;;16.33;56.26
1652;BME280;823;49.028;8.454;2023-04-21T20:32:39;99771.84;;;16.38;56.25
1652;BME280;823;49.028;8.454;2023-04-21T20:37:40;99776.03;;;16.41;56.09
1652;BME280;823;49.028;8.454;2023-04-21T20:42:41;99773.59;;;16.25;56.59
1652;BME280;823;49.028;8.454;2023-04-21T20:47:44;99772.34;;;16.30;56.58
1652;BME280;823;49.028;8.454;2023-04-21T20:52:44;99769.13;;;16.40;56.47
1652;BME280;823;49.028;8.454;2023-04-21T20:57:44;99768.59;;;16.47;56.28
1652;BME280;823;49.028;8.454;2023-04-21T21:02:45;99778.44;;;16.57;55.81
1652;BME280;823;49.028;8.454;2023-04-21T21:07:45;99776.22;;;16.63;55.63
1652;BME280;823;49.028;8.454;2023-04-21T21:12:45;99784.91;;;16.51;55.90
1652;BME280;823;49.028;8.454;2023-04-21T21:17:46;99798.13;;;16.35;56.33
1652;BME280;823;49.028;8.454;2023-04-21T21:22:46;99796.75;;;16.29;56.53
1652;BME280;823;49.028;8.454;2023-04-21T21:27:46;99796.16;;;16.26;56.45
1652;BME280;823;49.028;8.454;2023-04-21T21:32:47;99798.22;;;16.33;56.60
1652;BME280;823;49.028;8.454;2023-04-21T21:37:48;99796.66;;;16.31;56.39
1652;BME280;823;49.028;8.454;2023-04-21T21:42:48;99802.19;;;16.39;55.93
1652;BME280;823;49.028;8.454;2023-04-21T21:47:49;99795.75;;;16.45;55.93
1652;BME280;823;49.028;8.454;2023-04-21T21:52:49;99799.53;;;16.41;56.04
1652;BME280;823;49.028;8.454;2023-04-21T21:57:49;99800.97;;;16.45;55.70
1652;BME280;823;49.028;8.454;2023-04-21T22:02:50;99788.16;;;16.55;55.50
1652;BME280;823;49.028;8.454;2023-04-21T22:07:50;99782.72;;;16.58;55.19
1652;BME280;823;49.028;8.454;2023-04-21T22:12:52;99780.31;;;16.55;55.07
1652;BME280;823;49.028;8.454;2023-04-21T22:17:53;99778.09;;;16.61;55.00
1652;BME280;823;49.028;8.454;2023-04-21T22:22:53;99778.31;;;16.58;55.06
1652;BME280;823;49.028;8.454;2023-04-21T22:27:54;99782.94;;;16.55;55.07
1652;BME280;823;49.028;8.454;2023-04-21T22:32:55;99775.94;;;16.42;55.53
1652;BME280;823;49.028;8.454;2023-04-21T22:37:55;99781.97;;;16.43;55.88
1652;BME280;823;49.028;8.454;2023-04-21T22:42:56;99780.94;;;16.32;55.76
1652;BME280;823;49.028;8.454;2023-04-21T22:47:56;99771.47;;;16.17;56.13
1652;BME280;823;49.028;8.454;2023-04-21T22:52:56;99766.09;;;16.20;56.18
1652;BME280;823;49.028;8.454;2023-04-21T22:57:57;99768.81;;;16.19;55.92
1652;BME280;823;49.028;8.454;2023-04-21T23:02:57;99773.06;;;16.20;55.83
1652;BME280;823;49.028;8.454;2023-04-21T23:07:57;99763.97;;;16.25;55.70
1652;BME280;823;49.028;8.454;2023-04-21T23:12:57;99764.63;;;16.29;55.03
1652;BME280;823;49.028;8.454;2023-04-21T23:17:58;99757.84;;;16.26;55.01
1652;BME280;823;49.028;8.454;2023-04-21T23:22:58;99764.09;;;16.24;55.57
1652;BME280;823;49.028;8.454;2023-04-21T23:27:58;99753.31;;;16.15;55.47
1652;BME280;823;49.028;8.454;2023-04-21T23:32:59;99747.06;;;16.05;55.57
1652;BME280;823;49.028;8.454;2023-04-21T23:38:00;99755.72;;;16.06;55.71
1652;BME280;823;49.028;8.454;2023-04-21T23:43:00;99748.91;;;16.03;55.82
1652;BME280;823;49.028;8.454;2023-04-21T23:48:00;99742.44;;;15.96;56.14
1652;BME280;823;49.028;8.454;2023-04-21T23:53:00;99741.50;;;15.97;55.73
1652;BME280;823;49.028;8.454;2023-04-21T23:58:01;99743.47;;;15.93;55.71
